Time;durP1;ratioP1;P1;durP2;ratioP2;P2;SDS_P1;SDS_P2;PMS_P1;PMS_P2;Temp;Humidity;BMP_temperature;BMP_pressure;BME280_temperature;BME280_humidity;BME280_pressure;Samples;Min_cycle;Max_cycle;Signal;HPM_P1;HPM_P2
2023/07/06 00:01:05;;;;;;;6.57;4.10;;;11.90;99.90;;;;;;5006636;28;20296;-72
2023/07/06 00:03:31;;;;;;;8.13;4.57;;;11.90;99.90;;;;;;5001070;28;20270;-72
2023/07/06 00:05:58;;;;;;;11.53;4.17;;;11.90;99.90;;;;;;5003105;28;20289;-72
2023/07/06 00:08:27;;;;;;;8.13;3.80;;;11.90;99.90;;;;;;5010650;28;20304;-72
2023/07/06 00:10:53;;;;;;;8.97;4.00;;;11.80;99.90;;;;;;5003462;28;20308;-72
2023/07/06 00:13:23;;;;;;;7.53;4.20;;;11.90;99.90;;;;;;4989048;28;20309;-72
2023/07/06 00:15:49;;;;;;;7.47;4.13;;;11.90;99.90;;;;;;5009984;28;20623;-72
2023/07/06 00:18:17;;;;;;;6.27;3.80;;;11.90;99.90;;;;;;4986773;28;20290;-72
2023/07/06 00:20:43;;;;;;;7.67;4.10;;;11.80;99.90;;;;;;4993704;28;20289;-72
2023/07/06 00:23:10;;;;;;;6.33;3.80;;;11.80;99.90;;;;;;5011388;28;20308;-72
2023/07/06 00:25:41;;;;;;;7.17;4.30;;;11.80;99.90;;;;;;5006501;28;20365;-72
2023/07/06 00:28:10;;;;;;;8.13;4.30;;;11.80;99.90;;;;;;5010023;28;20312;-72
2023/07/06 00:30:52;;;;;;;11.23;4.50;;;11.70;99.90;;;;;;5010081;28;20601;-72
2023/07/06 00:33:20;;;;;;;9.57;4.33;;;11.70;99.90;;;;;;4991808;28;20301;-72
2023/07/06 00:35:46;;;;;;;7.43;4.30;;;11.70;99.90;;;;;;5002979;28;20294;-72
2023/07/06 00:38:16;;;;;;;12.83;4.77;;;11.70;99.90;;;;;;5009275;28;20309;-72
2023/07/06 00:40:56;;;;;;;5.90;4.37;;;11.70;99.90;;;;;;5001369;28;20339;-72
2023/07/06 00:43:46;;;;;;;7.20;4.63;;;11.70;99.90;;;;;;5010887;28;20288;-72
2023/07/06 00:46:12;;;;;;;9.07;4.57;;;11.60;99.90;;;;;;5011346;28;20304;-72
2023/07/06 00:48:44;;;;;;;8.93;4.47;;;11.60;99.90;;;;;;5002517;28;20309;-72
2023/07/06 00:51:22;;;;;;;9.97;3.97;;;11.60;99.90;;;;;;5005841;28;20324;-72
2023/07/06 00:53:54;;;;;;;7.47;4.40;;;11.60;99.90;;;;;;4989461;28;20277;-72
2023/07/06 00:56:23;;;;;;;8.37;4.13;;;11.60;99.90;;;;;;5005054;28;20272;-72
2023/07/06 00:58:53;;;;;;;7.20;4.67;;;11.60;99.90;;;;;;5005216;28;20375;-72
2023/07/06 01:01:21;;;;;;;10.90;4.73;;;11.60;99.90;;;;;;4994254;28;20285;-72
2023/07/06 01:03:52;;;;;;;9.30;4.60;;;11.60;99.90;;;;;;4985809;28;20281;-72
2023/07/06 01:06:34;;;;;;;7.47;4.37;;;11.60;99.90;;;;;;5003892;28;20274;-72
2023/07/06 01:09:03;;;;;;;9.07;4.53;;;11.60;99.90;;;;;;5005289;28;20305;-72
2023/07/06 01:11:29;;;;;;;8.43;4.73;;;11.60;99.90;;;;;;5010064;28;20285;-72
2023/07/06 01:13:55;;;;;;;9.13;4.57;;;11.60;99.90;;;;;;4993171;28;20312;-72
2023/07/06 01:16:42;;;;;;;9.20;4.63;;;11.60;99.90;;;;;;5010032;28;20041;-72
2023/07/06 01:19:35;;;;;;;6.87;4.37;;;11.60;99.90;;;;;;5009994;28;20080;-72
2023/07/06 01:22:40;;;;;;;9.17;4.63;;;11.60;99.90;;;;;;4986738;28;20315;-72
2023/07/06 01:25:31;;;;;;;7.23;4.60;;;11.50;99.90;;;;;;5001316;28;20803;-72
2023/07/06 01:28:00;;;;;;;8.90;4.80;;;11.50;99.90;;;;;;4987316;28;20311;-72
2023/07/06 01:30:56;;;;;;;7.30;4.23;;;11.50;99.90;;;;;;5006192;28;20290;-72
2023/07/06 01:33:47;;;;;;;7.90;4.10;;;11.50;99.90;;;;;;4996875;28;20380;-72
2023/07/06 01:36:34;;;;;;;7.33;4.27;;;11.50;99.90;;;;;;5004370;28;20371;-72
2023/07/06 01:39:20;;;;;;;8.07;3.97;;;11.50;99.90;;;;;;4984743;28;20289;-72
2023/07/06 01:42:06;;;;;;;7.00;5.13;;;11.50;99.90;;;;;;5004905;28;20292;-72
2023/07/06 01:44:32;;;;;;;8.00;4.83;;;11.50;99.90;;;;;;4993268;28;20277;-72
2023/07/06 01:46:58;;;;;;;7.57;4.63;;;11.50;99.90;;;;;;5000065;28;20313;-72
2023/07/06 01:49:24;;;;;;;7.97;5.03;;;11.50;99.90;;;;;;5006964;28;20320;-72
2023/07/06 01:52:19;;;;;;;7.10;4.67;;;11.50;99.90;;;;;;4991787;28;20281;-72
2023/07/06 01:55:09;;;;;;;10.50;4.50;;;11.50;99.90;;;;;;4976752;28;20125;-71
2023/07/06 01:58:24;;;;;;;10.57;5.10;;;11.50;99.90;;;;;;4989662;28;20773;-71
2023/07/06 02:01:18;;;;;;;8.27;4.70;;;11.50;99.90;;;;;;5001544;28;20335;-71
2023/07/06 02:03:45;;;;;;;10.17;4.87;;;11.60;99.90;;;;;;5003436;28;20309;-71
2023/07/06 02:06:12;;;;;;;7.87;4.80;;;11.60;99.90;;;;;;4993213;28;20316;-71
2023/07/06 02:08:41;;;;;;;10.97;5.00;;;11.60;99.90;;;;;;4993055;28;20351;-71
2023/07/06 02:11:19;;;;;;;7.83;5.10;;;11.60;99.90;;;;;;4990126;28;20297;-71
2023/07/06 02:13:45;;;;;;;12.00;5.20;;;11.60;99.90;;;;;;5006094;28;20298;-71
2023/07/06 02:16:10;;;;;;;9.10;4.70;;;11.50;99.90;;;;;;5009291;28;20280;-71
2023/07/06 02:18:36;;;;;;;8.60;4.73;;;11.50;99.90;;;;;;4991634;28;20124;-71
2023/07/06 02:21:03;;;;;;;11.27;5.80;;;11.50;99.90;;;;;;4998821;28;20049;-71
2023/07/06 02:23:29;;;;;;;9.97;5.07;;;11.40;99.90;;;;;;4985137;28;20107;-71
2023/07/06 02:25:55;;;;;;;12.17;4.40;;;11.40;99.90;;;;;;5003935;28;20301;-71
2023/07/06 02:28:22;;;;;;;9.40;4.93;;;11.40;99.90;;;;;;5007365;28;20303;-71
2023/07/06 02:30:48;;;;;;;9.00;4.43;;;11.40;99.90;;;;;;5009114;28;20777;-71
2023/07/06 02:33:18;;;;;;;6.73;5.17;;;11.40;99.90;;;;;;5008141;28;20311;-71
2023/07/06 02:35:47;;;;;;;7.60;4.50;;;11.40;99.90;;;;;;5001681;28;20291;-71
2023/07/06 02:38:18;;;;;;;9.00;5.10;;;11.40;99.90;;;;;;4994630;28;20301;-71
2023/07/06 02:40:46;;;;;;;7.93;4.90;;;11.40;99.90;;;;;;4993363;28;20296;-72
2023/07/06 02:43:12;;;;;;;10.37;4.90;;;11.40;99.90;;;;;;4991338;28;20321;-72
2023/07/06 02:45:38;;;;;;;7.90;4.80;;;11.50;99.90;;;;;;4992230;28;20351;-72
2023/07/06 02:48:04;;;;;;;10.17;4.80;;;11.50;99.90;;;;;;5011541;28;20300;-72
2023/07/06 02:50:30;;;;;;;7.60;4.67;;;11.60;99.90;;;;;;5008787;28;20104;-72
2023/07/06 02:52:56;;;;;;;6.30;4.27;;;11.60;99.90;;;;;;5008404;28;20328;-72
2023/07/06 02:55:23;;;;;;;6.67;4.23;;;11.60;99.90;;;;;;5008621;28;20279;-72
2023/07/06 02:57:49;;;;;;;8.13;4.77;;;11.70;99.90;;;;;;5005215;28;20297;-72
2023/07/06 03:00:16;;;;;;;7.97;4.37;;;11.70;99.90;;;;;;5002828;28;20304;-72
2023/07/06 03:02:43;;;;;;;10.27;4.87;;;11.70;99.90;;;;;;4990042;28;20296;-72
2023/07/06 03:05:10;;;;;;;7.63;4.47;;;11.80;99.90;;;;;;4989058;28;20576;-72
2023/07/06 03:07:36;;;;;;;9.57;5.23;;;11.80;99.90;;;;;;4986215;28;20293;-72
2023/07/06 03:10:02;;;;;;;7.90;4.97;;;11.80;99.90;;;;;;5007925;28;20312;-72
2023/07/06 03:12:36;;;;;;;7.70;4.87;;;12.00;99.90;;;;;;5006230;28;20038;-72
2023/07/06 03:15:10;;;;;;;7.57;5.00;;;12.10;99.90;;;;;;5008772;28;20735;-72
2023/07/06 03:17:36;;;;;;;12.70;5.67;;;12.10;99.90;;;;;;5003927;28;20305;-72
2023/07/06 03:20:15;;;;;;;9.77;5.30;;;12.20;99.90;;;;;;4985896;28;20312;-72
2023/07/06 03:22:44;;;;;;;13.23;5.60;;;12.30;99.90;;;;;;4990634;28;20293;-72
2023/07/06 03:25:10;;;;;;;11.33;5.63;;;12.30;99.90;;;;;;4986962;28;20383;-72
2023/07/06 03:27:36;;;;;;;10.17;5.70;;;12.40;99.90;;;;;;5001456;28;20396;-72
2023/07/06 03:30:09;;;;;;;9.97;5.60;;;12.40;99.90;;;;;;5006830;28;20375;-71
2023/07/06 03:32:37;;;;;;;8.73;5.93;;;12.50;99.90;;;;;;5007767;28;20300;-71
2023/07/06 03:35:04;;;;;;;11.47;6.10;;;12.50;99.90;;;;;;5007171;28;20618;-71
2023/07/06 03:37:29;;;;;;;9.13;5.77;;;12.50;99.90;;;;;;4998709;28;20714;-71
2023/07/06 03:39:55;;;;;;;7.20;5.57;;;12.50;99.90;;;;;;4995197;28;20372;-71
2023/07/06 03:42:21;;;;;;;8.73;6.43;;;12.50;99.90;;;;;;4987920;28;20054;-71
2023/07/06 03:44:47;;;;;;;11.57;6.77;;;12.50;99.90;;;;;;5012099;28;20176;-71
2023/07/06 03:47:14;;;;;;;10.90;6.67;;;12.50;99.90;;;;;;4995892;28;20034;-72
2023/07/06 03:49:40;;;;;;;8.97;6.33;;;12.50;99.90;;;;;;5011050;28;20104;-72
2023/07/06 03:52:06;;;;;;;13.60;6.60;;;12.40;99.90;;;;;;4994835;28;20285;-72
2023/07/06 03:54:34;;;;;;;9.37;5.80;;;12.40;99.90;;;;;;5012279;28;20320;-72
2023/07/06 03:57:01;;;;;;;9.83;6.70;;;12.40;99.90;;;;;;4996340;28;20811;-72
2023/07/06 03:59:31;;;;;;;12.40;6.73;;;12.40;99.90;;;;;;5012450;28;20293;-72
2023/07/06 04:01:57;;;;;;;13.47;7.07;;;12.40;99.90;;;;;;5003141;28;20595;-72
2023/07/06 04:04:28;;;;;;;11.23;7.60;;;12.40;99.90;;;;;;5007966;28;20364;-72
2023/07/06 04:06:55;;;;;;;11.33;7.27;;;12.40;99.90;;;;;;5011480;28;20041;-72
2023/07/06 04:09:21;;;;;;;11.90;7.33;;;12.40;99.90;;;;;;5011773;28;20899;-72
2023/07/06 04:11:47;;;;;;;15.03;6.97;;;12.50;99.90;;;;;;5011132;28;20366;-72
2023/07/06 04:14:13;;;;;;;13.67;8.30;;;12.50;99.90;;;;;;5007229;28;20300;-72
2023/07/06 04:16:40;;;;;;;14.23;7.60;;;12.50;99.90;;;;;;5008966;28;20535;-72
2023/07/06 04:19:06;;;;;;;12.00;8.07;;;12.50;99.90;;;;;;5011542;28;20284;-72
2023/07/06 04:21:32;;;;;;;16.93;8.37;;;12.50;99.90;;;;;;4995096;28;20289;-72
2023/07/06 04:23:59;;;;;;;14.23;7.93;;;12.50;99.90;;;;;;4985007;28;20644;-72
2023/07/06 04:26:25;;;;;;;17.83;9.03;;;12.60;99.90;;;;;;5003443;28;20038;-72
2023/07/06 04:28:50;;;;;;;14.87;8.47;;;12.60;99.90;;;;;;5007522;28;20811;-72
2023/07/06 04:31:17;;;;;;;21.30;8.63;;;12.70;99.90;;;;;;5011445;28;20042;-72
2023/07/06 04:33:45;;;;;;;14.90;8.50;;;12.80;99.90;;;;;;5002834;28;20034;-72
2023/07/06 04:36:12;;;;;;;18.37;8.83;;;12.80;99.90;;;;;;5010485;28;20344;-72
2023/07/06 04:38:38;;;;;;;16.43;9.40;;;12.90;99.90;;;;;;5011249;28;20304;-72
2023/07/06 04:41:04;;;;;;;18.83;9.60;;;13.00;99.90;;;;;;5003548;28;20792;-72
2023/07/06 04:43:30;;;;;;;15.73;8.63;;;13.40;99.90;;;;;;4997389;28;20351;-72
2023/07/06 04:45:56;;;;;;;16.87;9.27;;;13.80;99.90;;;;;;4992864;28;20281;-72
2023/07/06 04:48:24;;;;;;;19.60;9.23;;;14.20;99.90;;;;;;4991538;28;20475;-72
2023/07/06 04:50:52;;;;;;;17.50;8.70;;;14.50;99.90;;;;;;4988197;28;20104;-72
2023/07/06 04:53:18;;;;;;;14.07;8.77;;;14.90;99.90;;;;;;5011197;28;20273;-72
2023/07/06 04:55:45;;;;;;;15.33;8.73;;;15.40;99.90;;;;;;5011553;28;20620;-72
2023/07/06 04:58:11;;;;;;;15.33;7.97;;;16.10;99.90;;;;;;5009559;28;20160;-72
2023/07/06 05:00:39;;;;;;;19.73;8.50;;;16.80;99.90;;;;;;4987839;28;20368;-72
2023/07/06 05:03:06;;;;;;;16.90;8.13;;;17.40;99.90;;;;;;4994580;28;20054;-72
2023/07/06 05:05:40;;;;;;;17.93;7.90;;;17.90;99.90;;;;;;5009158;28;20285;-72
2023/07/06 05:08:15;;;;;;;14.60;7.63;;;18.40;99.80;;;;;;5008919;28;20305;-72
2023/07/06 05:10:46;;;;;;;12.25;7.03;;;19.10;98.50;;;;;;4981100;28;20321;-72
2023/07/06 05:13:12;;;;;;;14.97;7.47;;;19.50;94.40;;;;;;5011262;28;20127;-72
2023/07/06 05:15:38;;;;;;;13.77;6.87;;;19.90;93.10;;;;;;5008048;28;20285;-72
2023/07/06 05:18:06;;;;;;;14.50;7.17;;;20.30;91.00;;;;;;4989721;28;20735;-72
2023/07/06 05:20:32;;;;;;;14.03;6.30;;;20.60;88.80;;;;;;5008710;28;20046;-72
2023/07/06 05:22:58;;;;;;;15.67;6.30;;;21.00;86.80;;;;;;5007942;28;20780;-72
2023/07/06 05:25:26;;;;;;;19.37;7.57;;;21.30;86.50;;;;;;5008296;28;20316;-72
2023/07/06 05:27:52;;;;;;;16.90;6.97;;;21.60;84.60;;;;;;4994152;28;20037;-72
2023/07/06 05:30:18;;;;;;;16.07;6.63;;;21.60;81.10;;;;;;4991126;28;20046;-72
2023/07/06 05:32:44;;;;;;;13.80;5.97;;;21.50;81.20;;;;;;5004555;28;20513;-72
2023/07/06 05:35:13;;;;;;;16.53;6.07;;;21.40;82.40;;;;;;5010663;28;20033;-72
2023/07/06 05:37:41;;;;;;;14.77;5.87;;;21.40;82.00;;;;;;5011243;28;20037;-72
2023/07/06 05:40:08;;;;;;;15.20;5.63;;;21.60;81.20;;;;;;5007523;28;20061;-72
2023/07/06 05:42:33;;;;;;;15.10;6.13;;;21.80;80.40;;;;;;4993323;28;20559;-72
2023/07/06 05:44:59;;;;;;;14.70;6.27;;;22.10;78.80;;;;;;4992251;28;20141;-72
2023/07/06 05:47:26;;;;;;;12.57;5.47;;;22.20;77.20;;;;;;4990452;28;20490;-72
2023/07/06 05:49:53;;;;;;;12.87;6.00;;;22.30;76.70;;;;;;5000882;28;20075;-72
2023/07/06 05:52:18;;;;;;;16.30;5.90;;;22.50;75.30;;;;;;5007108;28;20084;-73
2023/07/06 05:54:44;;;;;;;14.27;5.50;;;22.60;75.20;;;;;;4996537;28;20117;-73
2023/07/06 05:57:10;;;;;;;15.40;6.17;;;22.70;75.10;;;;;;5008306;28;20057;-73
2023/07/06 05:59:41;;;;;;;19.27;6.37;;;22.70;73.00;;;;;;5005950;28;20102;-73
2023/07/06 06:02:09;;;;;;;12.30;5.50;;;22.70;73.10;;;;;;4997800;28;20120;-73
2023/07/06 06:04:36;;;;;;;15.83;6.10;;;22.80;73.80;;;;;;5005983;28;20054;-73
2023/07/06 06:07:02;;;;;;;12.23;5.50;;;22.70;73.90;;;;;;4990727;28;20050;-73
2023/07/06 06:09:28;;;;;;;15.00;5.40;;;22.60;73.00;;;;;;4991876;28;20065;-73
2023/07/06 06:11:54;;;;;;;15.63;5.60;;;22.60;73.30;;;;;;4981674;28;20041;-73
2023/07/06 06:14:20;;;;;;;11.33;5.33;;;22.70;73.40;;;;;;4992896;28;20434;-73
2023/07/06 06:16:47;;;;;;;14.00;5.97;;;22.70;71.70;;;;;;4991740;28;20513;-73
2023/07/06 06:19:13;;;;;;;13.97;5.40;;;23.00;72.20;;;;;;4999691;28;20420;-73
2023/07/06 06:21:38;;;;;;;15.37;5.07;;;23.30;71.70;;;;;;5007379;28;20034;-73
2023/07/06 06:24:08;;;;;;;14.37;5.20;;;23.40;70.60;;;;;;4990158;28;20052;-73
2023/07/06 06:26:34;;;;;;;14.03;5.03;;;23.30;70.30;;;;;;4993049;28;20422;-73
2023/07/06 06:29:00;;;;;;;13.53;4.63;;;23.10;71.20;;;;;;5009504;28;20041;-73
2023/07/06 06:31:26;;;;;;;13.77;5.10;;;22.80;71.90;;;;;;5006471;28;20038;-73
2023/07/06 06:33:52;;;;;;;12.87;4.87;;;22.90;72.30;;;;;;5008524;28;20037;-73
2023/07/06 06:36:18;;;;;;;15.20;5.30;;;23.00;70.70;;;;;;5007511;28;20038;-73
2023/07/06 06:38:44;;;;;;;11.73;4.40;;;23.30;70.20;;;;;;5008795;28;20100;-73
2023/07/06 06:41:11;;;;;;;11.23;3.23;;;23.40;69.50;;;;;;4992817;28;20695;-73
2023/07/06 06:43:38;;;;;;;6.83;2.43;;;23.50;68.70;;;;;;4990353;28;20486;-74
2023/07/06 06:46:08;;;;;;;10.73;3.17;;;23.20;64.80;;;;;;5008407;28;20048;-73
2023/07/06 06:48:34;;;;;;;8.80;3.63;;;22.80;63.80;;;;;;5006638;28;20074;-73
2023/07/06 06:51:01;;;;;;;10.03;3.23;;;22.60;65.40;;;;;;4991151;28;20046;-73
2023/07/06 06:53:26;;;;;;;9.33;2.83;;;22.20;66.40;;;;;;4991151;28;20099;-73
2023/07/06 06:55:54;;;;;;;7.40;3.00;;;22.10;68.10;;;;;;4992234;28;20129;-73
2023/07/06 06:58:23;;;;;;;8.43;3.30;;;22.00;69.40;;;;;;5004543;28;20046;-73
2023/07/06 07:01:00;;;;;;;8.90;3.47;;;21.90;68.70;;;;;;5009134;28;20046;-73
2023/07/06 07:03:28;;;;;;;11.07;3.33;;;21.50;69.70;;;;;;5005447;28;20099;-73
2023/07/06 07:06:13;;;;;;;6.33;2.10;;;21.20;71.60;;;;;;5007308;28;20042;-73
2023/07/06 07:08:57;;;;;;;12.75;2.75;;;21.10;68.50;;;;;;4990254;28;20030;-73
2023/07/06 07:11:23;;;;;;;9.60;2.70;;;20.90;69.20;;;;;;4991416;28;20137;-73
2023/07/06 07:13:50;;;;;;;9.63;2.47;;;20.50;71.70;;;;;;5012459;28;20049;-73
2023/07/06 07:16:17;;;;;;;8.33;2.87;;;20.40;72.50;;;;;;5013069;28;20034;-73
2023/07/06 07:18:43;;;;;;;6.37;2.17;;;20.20;72.70;;;;;;5006272;28;20042;-73
2023/07/06 07:21:10;;;;;;;9.50;2.10;;;19.90;73.60;;;;;;5012566;28;20108;-73
2023/07/06 07:23:41;;;;;;;5.93;2.47;;;19.60;73.30;;;;;;5018353;28;20046;-73
2023/07/06 07:26:12;;;;;;;8.47;2.20;;;19.30;74.40;;;;;;5011429;28;20398;-73
2023/07/06 07:28:38;;;;;;;7.60;2.47;;;19.20;75.10;;;;;;5012544;28;20418;-73
2023/07/06 07:31:07;;;;;;;6.57;1.70;;;19.20;76.10;;;;;;5010717;28;20038;-74
2023/07/06 07:33:34;;;;;;;6.30;1.90;;;19.30;74.10;;;;;;4995154;28;20034;-74
2023/07/06 07:36:02;;;;;;;6.60;1.60;;;19.40;72.30;;;;;;5016234;28;20038;-75
2023/07/06 07:38:28;;;;;;;7.60;2.57;;;19.40;70.20;;;;;;5013446;28;20042;-74
2023/07/06 07:40:56;;;;;;;6.07;1.70;;;19.40;70.40;;;;;;5014488;28;20046;-73
2023/07/06 07:43:27;;;;;;;5.87;1.60;;;19.40;70.20;;;;;;4996246;28;20053;-74
2023/07/06 07:46:06;;;;;;;6.20;2.00;;;19.50;71.80;;;;;;5002761;28;20110;-73
2023/07/06 07:48:34;;;;;;;3.77;1.53;;;19.70;72.30;;;;;;5010443;28;20042;-74
2023/07/06 07:51:03;;;;;;;5.13;2.23;;;20.00;70.90;;;;;;5012150;28;20048;-74
2023/07/06 07:53:32;;;;;;;5.37;1.30;;;20.00;69.00;;;;;;4986347;28;20040;-74
2023/07/06 07:55:58;;;;;;;6.93;1.30;;;20.00;69.50;;;;;;4994668;28;20390;-74
2023/07/06 07:58:24;;;;;;;7.47;1.40;;;20.20;68.60;;;;;;5014091;28;20038;-73
2023/07/06 08:00:50;;;;;;;3.30;0.80;;;20.10;65.80;;;;;;4997807;28;20042;-73
2023/07/06 08:03:16;;;;;;;4.77;1.33;;;19.80;61.30;;;;;;4997042;28;20037;-73
2023/07/06 08:05:42;;;;;;;4.80;1.30;;;19.60;63.70;;;;;;5006733;28;20296;-73
2023/07/06 08:08:10;;;;;;;3.10;0.90;;;19.60;65.10;;;;;;5011785;28;20038;-74
2023/07/06 08:10:40;;;;;;;2.57;0.97;;;19.80;64.50;;;;;;4993595;28;20042;-73
2023/07/06 08:13:09;;;;;;;5.33;1.40;;;19.90;63.50;;;;;;5008676;28;20038;-73
2023/07/06 08:15:38;;;;;;;2.57;1.00;;;20.00;63.00;;;;;;4996690;28;20080;-74
2023/07/06 08:18:06;;;;;;;3.37;0.83;;;20.10;63.80;;;;;;5013556;28;20054;-73
2023/07/06 08:20:35;;;;;;;3.07;1.00;;;20.30;61.40;;;;;;5015256;28;20692;-73
2023/07/06 08:23:11;;;;;;;4.83;1.03;;;20.40;62.00;;;;;;5009735;28;20457;-73
2023/07/06 08:25:39;;;;;;;4.23;1.00;;;20.40;61.40;;;;;;4998611;28;20048;-73
2023/07/06 08:28:05;;;;;;;6.57;1.37;;;20.50;61.20;;;;;;5010433;28;20042;-73
2023/07/06 08:30:37;;;;;;;4.10;0.93;;;20.70;63.10;;;;;;5005071;28;20053;-73
2023/07/06 08:33:04;;;;;;;3.90;1.10;;;20.90;59.20;;;;;;5006562;28;20038;-73
2023/07/06 08:35:30;;;;;;;3.77;1.10;;;20.80;59.20;;;;;;4990896;28;20046;-73
2023/07/06 08:37:57;;;;;;;3.50;0.83;;;20.70;60.80;;;;;;5004163;28;20057;-74
2023/07/06 08:40:31;;;;;;;3.87;1.10;;;20.60;60.60;;;;;;5002682;28;20062;-73
2023/07/06 08:42:57;;;;;;;3.00;0.90;;;20.70;61.60;;;;;;5009760;28;20048;-73
2023/07/06 08:45:28;;;;;;;3.60;1.00;;;20.80;62.20;;;;;;5000940;28;20038;-73
2023/07/06 08:47:56;;;;;;;4.50;0.83;;;20.90;58.90;;;;;;4988631;28;20128;-73
2023/07/06 08:50:28;;;;;;;3.60;1.00;;;20.80;60.50;;;;;;5001547;28;20441;-73
2023/07/06 08:52:56;;;;;;;4.47;0.87;;;20.80;59.60;;;;;;5012905;28;20040;-73
2023/07/06 08:55:22;;;;;;;4.57;1.00;;;20.90;59.30;;;;;;5005498;28;20037;-73
2023/07/06 08:57:49;;;;;;;4.23;0.80;;;20.80;59.80;;;;;;5003399;28;20089;-73
2023/07/06 09:00:27;;;;;;;3.20;0.87;;;20.90;59.50;;;;;;4982863;28;20042;-72
2023/07/06 09:03:05;;;;;;;2.63;1.00;;;20.90;59.70;;;;;;5009606;28;20046;-73
2023/07/06 09:05:34;;;;;;;4.60;0.90;;;21.00;60.20;;;;;;4991170;28;20041;-73
2023/07/06 09:08:00;;;;;;;3.00;1.13;;;20.80;58.50;;;;;;5006570;28;20042;-73
2023/07/06 09:10:28;;;;;;;3.63;0.90;;;20.70;59.00;;;;;;4990026;28;20120;-73
2023/07/06 09:12:57;;;;;;;3.70;0.97;;;20.60;60.30;;;;;;4991265;28;20072;-73
2023/07/06 09:15:28;;;;;;;4.07;1.40;;;20.60;61.20;;;;;;4989769;28;20034;-73
2023/07/06 09:17:59;;;;;;;6.20;1.87;;;20.50;60.60;;;;;;5012147;28;20397;-73
2023/07/06 09:20:26;;;;;;;4.67;1.20;;;20.50;62.80;;;;;;5003250;28;20042;-73
2023/07/06 09:22:52;;;;;;;3.10;1.13;;;20.50;61.30;;;;;;5002294;28;20034;-74
2023/07/06 09:25:43;;;;;;;3.90;1.37;;;20.40;61.30;;;;;;5004433;28;20184;-73
2023/07/06 09:28:18;;;;;;;4.10;1.47;;;20.60;63.30;;;;;;5004486;28;20543;-73
2023/07/06 09:30:45;;;;;;;;;;;20.80;63.20;;;;;;5005074;28;20046;-73
2023/07/06 09:33:25;;;;;;;4.03;1.40;;;20.80;63.50;;;;;;5004553;28;20665;-74
2023/07/06 09:35:53;;;;;;;3.70;1.50;;;20.80;63.30;;;;;;4999663;28;20038;-74
2023/07/06 09:38:20;;;;;;;3.27;1.43;;;20.90;64.10;;;;;;5000604;28;20077;-72
2023/07/06 09:40:46;;;;;;;2.53;1.10;;;21.00;64.20;;;;;;4996272;28;20108;-72
2023/07/06 09:43:29;;;;;;;2.13;0.97;;;21.20;63.70;;;;;;4999328;28;20046;-72
2023/07/06 09:45:59;;;;;;;6.13;1.47;;;21.50;60.60;;;;;;4980476;28;20042;-72
2023/07/06 09:48:26;;;;;;;2.77;1.10;;;21.70;60.70;;;;;;5002163;28;20081;-72
2023/07/06 09:51:33;;;;;;;3.93;0.73;;;21.60;57.60;;;;;;4979901;28;20494;-72
2023/07/06 09:54:05;;;;;;;1.23;0.77;;;21.10;56.70;;;;;;4978632;28;20402;-72
2023/07/06 09:56:30;;;;;;;5.90;1.00;;;20.40;58.80;;;;;;4980329;28;20130;-72
2023/07/06 09:58:58;;;;;;;4.20;0.80;;;20.20;60.40;;;;;;4990427;28;20125;-72
2023/07/06 10:01:53;;;;;;;2.47;0.60;;;20.10;60.50;;;;;;4983089;28;20958;-72
2023/07/06 10:04:36;;;;;;;5.38;1.05;;;20.00;60.90;;;;;;4987905;28;20038;-72
2023/07/06 10:07:27;;;;;;;4.13;1.07;;;19.90;61.80;;;;;;5005647;28;20048;-72
2023/07/06 10:09:57;;;;;;;3.03;1.30;;;19.80;61.40;;;;;;4983564;28;20310;-72
2023/07/06 10:12:38;;;;;;;3.93;0.97;;;19.70;62.80;;;;;;5001244;28;20053;-72
2023/07/06 10:15:26;;;;;;;3.20;0.60;;;19.60;62.60;;;;;;4991288;28;20081;-72
2023/07/06 10:18:23;;;;;;;4.70;0.60;;;19.50;59.90;;;;;;5000586;28;20050;-72
2023/07/06 10:21:07;;;;;;;3.00;0.80;;;19.50;60.60;;;;;;4997826;28;20065;-72
2023/07/06 10:23:49;;;;;;;3.55;0.93;;;19.50;61.00;;;;;;4982452;28;20045;-72
2023/07/06 10:26:29;;;;;;;3.37;0.93;;;19.50;62.10;;;;;;5003285;28;20048;-72
2023/07/06 10:29:08;;;;;;;5.20;1.07;;;19.50;62.00;;;;;;4987304;28;20113;-72
2023/07/06 10:31:43;;;;;;;2.90;0.67;;;19.80;61.30;;;;;;5001432;28;20056;-72
2023/07/06 10:34:18;;;;;;;3.05;0.80;;;20.20;61.20;;;;;;4993877;28;20057;-72
2023/07/06 10:36:45;;;;;;;3.50;0.90;;;20.60;59.70;;;;;;4998284;28;20069;-72
2023/07/06 10:39:32;;;;;;;4.20;0.80;;;21.00;57.90;;;;;;4999377;28;20057;-72
2023/07/06 10:42:03;;;;;;;4.43;0.90;;;21.20;56.90;;;;;;4988022;28;20053;-72
2023/07/06 10:44:44;;;;;;;3.80;0.50;;;21.20;57.80;;;;;;5004792;28;20044;-72
2023/07/06 10:47:28;;;;;;;1.27;0.60;;;21.40;58.10;;;;;;4994242;28;20465;-72
2023/07/06 10:50:12;;;;;;;4.20;0.97;;;21.60;56.30;;;;;;4988976;28;20085;-72
2023/07/06 10:52:43;;;;;;;2.47;0.50;;;21.60;56.10;;;;;;4983101;28;20038;-72
2023/07/06 10:55:19;;;;;;;3.30;0.60;;;21.80;56.60;;;;;;5004479;28;20038;-72
2023/07/06 10:57:57;;;;;;;2.10;0.53;;;22.10;55.70;;;;;;5000408;28;20048;-72
2023/07/06 11:00:32;;;;;;;3.20;0.60;;;22.30;55.40;;;;;;4983120;28;20498;-72
2023/07/06 11:03:02;;;;;;;2.75;0.70;;;22.30;54.40;;;;;;4982843;28;20577;-72
2023/07/06 11:05:30;;;;;;;2.20;0.50;;;22.30;51.40;;;;;;4983482;28;20050;-72
2023/07/06 11:07:59;;;;;;;1.30;0.50;;;21.90;53.10;;;;;;4996086;28;20096;-72
2023/07/06 11:10:44;;;;;;;2.00;0.40;;;21.70;53.40;;;;;;5002410;28;20046;-72
2023/07/06 11:13:10;;;;;;;4.43;0.63;;;21.50;54.70;;;;;;5000904;28;20042;-71
2023/07/06 11:15:36;;;;;;;2.87;0.80;;;21.40;54.40;;;;;;4999414;28;20046;-71
2023/07/06 11:18:13;;;;;;;3.00;0.73;;;21.20;55.10;;;;;;4983388;28;20053;-71
2023/07/06 11:20:42;;;;;;;2.73;0.70;;;21.10;56.00;;;;;;5004170;28;20140;-72
2023/07/06 11:23:13;;;;;;;2.27;0.60;;;21.20;56.00;;;;;;5003694;28;20498;-72
2023/07/06 11:25:39;;;;;;;1.67;0.77;;;21.10;55.30;;;;;;4986480;28;20414;-72
2023/07/06 11:28:10;;;;;;;2.67;0.43;;;21.20;54.00;;;;;;4990316;28;20119;-73
2023/07/06 11:30:54;;;;;;;5.33;0.93;;;21.30;55.00;;;;;;5009038;28;20058;-73
2023/07/06 11:33:43;;;;;;;3.40;0.67;;;21.40;54.50;;;;;;5004044;28;20180;-72
2023/07/06 11:36:13;;;;;;;3.23;0.70;;;21.70;54.90;;;;;;4982610;28;20161;-72
2023/07/06 11:39:09;;;;;;;4.33;0.63;;;22.10;53.60;;;;;;4988274;28;20058;-72
2023/07/06 11:41:53;;;;;;;3.73;0.77;;;22.30;55.50;;;;;;4991269;28;20054;-73
2023/07/06 11:44:26;;;;;;;1.60;0.60;;;22.50;54.80;;;;;;5008612;28;20033;-72
2023/07/06 11:47:07;;;;;;;7.23;0.90;;;22.60;51.10;;;;;;4990427;28;20042;-73
2023/07/06 11:49:47;;;;;;;3.50;0.57;;;22.60;55.50;;;;;;5007157;28;20133;-73
2023/07/06 11:52:44;;;;;;;2.37;0.50;;;22.70;55.10;;;;;;5008893;28;20421;-73
2023/07/06 11:55:33;;;;;;;2.27;0.70;;;22.60;53.00;;;;;;5003066;28;20057;-73
2023/07/06 11:58:21;;;;;;;5.00;1.10;;;22.50;54.40;;;;;;4998609;28;20105;-73
2023/07/06 12:00:54;;;;;;;4.63;0.80;;;22.40;55.00;;;;;;5007129;28;20684;-72
2023/07/06 12:03:26;;;;;;;2.33;0.80;;;22.30;55.40;;;;;;5011958;28;20394;-73
2023/07/06 12:05:55;;;;;;;3.40;1.00;;;22.10;55.60;;;;;;5010206;28;20048;-72
2023/07/06 12:08:30;;;;;;;3.67;1.00;;;22.00;55.90;;;;;;5012036;28;20045;-73
2023/07/06 12:11:15;;;;;;;0.93;0.43;;;21.90;55.90;;;;;;5013616;28;20042;-73
2023/07/06 12:13:43;;;;;;;3.30;0.90;;;22.00;54.20;;;;;;5011175;28;20065;-73
2023/07/06 12:16:09;;;;;;;3.67;0.90;;;22.20;56.70;;;;;;5010604;28;20038;-72
2023/07/06 12:18:36;;;;;;;2.87;0.70;;;22.40;57.10;;;;;;4994753;28;20124;-73
2023/07/06 12:21:03;;;;;;;2.17;0.90;;;22.60;56.60;;;;;;5009870;28;20046;-73
2023/07/06 12:23:30;;;;;;;3.13;0.90;;;22.90;56.60;;;;;;4994230;28;20116;-73
2023/07/06 12:25:57;;;;;;;3.27;0.87;;;23.00;52.40;;;;;;5004271;28;20044;-72
2023/07/06 12:28:31;;;;;;;3.43;0.60;;;23.10;51.20;;;;;;5010423;28;20053;-73
2023/07/06 12:31:03;;;;;;;2.50;0.57;;;23.10;52.30;;;;;;4999001;28;20073;-73
2023/07/06 12:33:29;;;;;;;3.20;0.70;;;23.10;52.70;;;;;;5006587;28;20077;-73
2023/07/06 12:35:56;;;;;;;2.73;0.70;;;23.20;52.50;;;;;;5007773;28;20108;-72
2023/07/06 12:38:23;;;;;;;2.67;0.80;;;23.20;50.30;;;;;;4987720;28;20486;-72
2023/07/06 12:40:49;;;;;;;1.53;0.73;;;23.10;49.70;;;;;;5007727;28;20045;-74
2023/07/06 12:43:30;;;;;;;2.50;0.50;;;23.10;51.30;;;;;;5007104;28;20046;-73
2023/07/06 12:45:56;;;;;;;1.90;0.70;;;23.10;50.50;;;;;;5006531;28;20085;-73
2023/07/06 12:48:25;;;;;;;1.90;0.60;;;23.10;51.20;;;;;;4991731;28;20430;-73
2023/07/06 12:50:54;;;;;;;1.97;0.60;;;23.10;51.50;;;;;;4991691;28;20042;-73
2023/07/06 12:53:33;;;;;;;2.87;0.60;;;23.10;49.70;;;;;;5007117;28;20041;-72
2023/07/06 12:56:06;;;;;;;1.67;0.60;;;23.30;50.30;;;;;;5007287;28;20046;-73
2023/07/06 12:58:35;;;;;;;2.07;0.60;;;23.60;51.90;;;;;;5005402;28;20042;-73
2023/07/06 13:01:10;;;;;;;3.70;0.80;;;23.90;50.90;;;;;;4988931;28;20502;-73
2023/07/06 13:03:52;;;;;;;2.70;0.60;;;23.90;50.60;;;;;;5007649;28;20473;-73